Time;durP1;ratioP1;P1;durP2;ratioP2;P2;SDS_P1;SDS_P2;PMS_P1;PMS_P2;Temp;Humidity;BMP_temperature;BMP_pressure;BME280_temperature;BME280_humidity;BME280_pressure;Samples;Min_cycle;Max_cycle;Signal;HPM_P1;HPM_P2
2023/10/14 00:01:31;;;;;;;4.85;1.02;;;;;;;8.05;100.00;100181.53;4816833;29;20046;-78
2023/10/14 00:03:56;;;;;;;9.00;1.17;;;;;;;8.01;100.00;100188.03;4787884;29;20072;-78
2023/10/14 00:06:23;;;;;;;4.57;0.77;;;;;;;7.99;100.00;100187.34;4820287;29;20070;-79
2023/10/14 00:08:56;;;;;;;10.88;1.10;;;;;;;7.96;100.00;100195.50;4804592;29;20049;-78
2023/10/14 00:11:22;;;;;;;9.82;1.25;;;;;;;7.92;100.00;100203.66;4809842;29;20070;-78
2023/10/14 00:13:49;;;;;;;10.13;2.17;;;;;;;7.87;100.00;100210.31;4778799;29;20134;-79
2023/10/14 00:18:55;;;;;;;7.15;1.13;;;;;;;7.78;100.00;100196.97;4818762;29;20050;-80
2023/10/14 00:21:27;;;;;;;7.80;1.10;;;;;;;7.79;100.00;100203.88;4797904;29;20046;-79
2023/10/14 00:23:56;;;;;;;5.90;1.10;;;;;;;7.72;100.00;100217.69;4815685;29;20066;-78
2023/10/14 00:26:26;;;;;;;9.07;1.65;;;;;;;7.71;100.00;100221.31;4829094;29;20388;-78
2023/10/14 00:28:54;;;;;;;14.52;1.25;;;;;;;7.65;100.00;100220.84;4797104;29;20225;-80
2023/10/14 00:31:22;;;;;;;9.00;1.00;;;;;;;7.64;100.00;100226.25;4782434;29;20031;-79
2023/10/14 00:33:48;;;;;;;10.23;1.63;;;;;;;7.57;100.00;100231.19;4802178;29;20034;-79
2023/10/14 00:36:16;;;;;;;8.80;1.95;;;;;;;7.59;100.00;100238.94;4794826;29;20056;-79
2023/10/14 00:38:45;;;;;;;10.98;1.75;;;;;;;7.62;100.00;100246.59;4810219;29;20037;-79
2023/10/14 00:41:12;;;;;;;7.10;0.85;;;;;;;7.61;100.00;100242.28;4811745;29;20046;-79
2023/10/14 00:43:41;;;;;;;7.57;1.35;;;;;;;7.58;100.00;100243.38;4803215;29;20374;-79
2023/10/14 00:46:15;;;;;;;8.30;0.90;;;;;;;7.61;100.00;100247.56;4777295;29;20035;-79
2023/10/14 00:48:46;;;;;;;9.85;1.40;;;;;;;7.61;100.00;100255.44;4807572;29;20045;-78
2023/10/14 00:51:19;;;;;;;8.00;1.23;;;;;;;7.63;100.00;100256.16;4820088;29;20038;-79
2023/10/14 00:54:02;;;;;;;7.15;1.10;;;;;;;7.57;100.00;100260.13;4807316;29;20039;-78
2023/10/14 00:56:29;;;;;;;4.18;0.98;;;;;;;7.57;100.00;100266.22;4814921;29;20068;-77
2023/10/14 00:59:03;;;;;;;5.90;1.27;;;;;;;7.62;100.00;100272.88;4806363;29;20034;-79
2023/10/14 01:01:50;;;;;;;6.70;1.20;;;;;;;7.55;100.00;100278.66;4800203;29;20051;-77
2023/10/14 01:04:19;;;;;;;8.30;1.42;;;;;;;7.54;100.00;100279.63;4821734;29;20035;-78
2023/10/14 01:09:52;;;;;;;7.65;1.25;;;;;;;7.57;100.00;100294.31;4809894;29;20042;-77
2023/10/14 01:15:20;;;;;;;8.32;1.05;;;;;;;7.61;100.00;100298.38;4795659;29;20053;-82
2023/10/14 01:17:47;;;;;;;7.00;0.80;;;;;;;7.62;100.00;100301.81;4819675;29;20046;-77
2023/10/14 01:23:30;;;;;;;4.40;0.70;;;;;;;7.72;100.00;100305.38;4798518;29;20109;-80
2023/10/14 01:25:32;;;;;;;9.02;1.40;;;;;;;7.72;100.00;100300.09;4816476;29;20050;-79
2023/10/14 01:27:59;;;;;;;5.07;0.80;;;;;;;7.75;100.00;100288.47;4800215;29;20038;-79
2023/10/14 01:30:32;;;;;;;4.88;1.00;;;;;;;7.76;100.00;100295.41;4816047;29;20034;-80
2023/10/14 01:35:53;;;;;;;6.13;0.75;;;;;;;7.72;100.00;100312.41;4812896;29;20053;-78
2023/10/14 01:38:19;;;;;;;5.13;0.77;;;;;;;7.72;100.00;100312.41;4806144;29;20058;-78
2023/10/14 01:40:52;;;;;;;3.47;0.70;;;;;;;7.69;100.00;100310.88;4817089;29;20041;-79
2023/10/14 01:43:23;;;;;;;2.70;0.60;;;;;;;7.63;100.00;100314.84;4819798;29;20038;-79
2023/10/14 01:48:30;;;;;;;3.67;0.82;;;;;;;7.53;100.00;100306.88;4817221;29;20038;-79
2023/10/14 01:50:57;;;;;;;3.03;0.57;;;;;;;7.51;100.00;100313.25;4801770;29;20127;-79
2023/10/14 01:53:28;;;;;;;2.53;0.40;;;;;;;7.51;100.00;100315.88;4813477;29;20062;-79
2023/10/14 01:55:58;;;;;;;3.70;0.52;;;;;;;7.54;100.00;100320.88;4814350;29;20041;-81
2023/10/14 01:58:30;;;;;;;2.78;0.63;;;;;;;7.54;100.00;100321.72;4802139;29;20249;-80
2023/10/14 02:01:05;;;;;;;1.95;0.20;;;;;;;7.59;100.00;100323.13;4792748;29;20054;-79
2023/10/14 02:03:33;;;;;;;2.63;0.45;;;;;;;7.58;100.00;100330.16;4813794;29;20073;-80
2023/10/14 02:06:02;;;;;;;1.30;0.20;;;;;;;7.56;100.00;100325.03;4799960;29;20042;-80
2023/10/14 02:08:28;;;;;;;2.65;0.40;;;;;;;7.54;100.00;100332.25;4814735;29;20416;-78
2023/10/14 02:10:54;;;;;;;1.08;0.30;;;;;;;7.52;100.00;100347.31;4806809;29;20043;-78
2023/10/14 02:13:21;;;;;;;3.50;0.73;;;;;;;7.57;100.00;100349.56;4780575;29;20384;-79
2023/10/14 02:15:48;;;;;;;2.78;0.52;;;;;;;7.51;100.00;100355.31;4802100;29;20034;-78
2023/10/14 02:18:22;;;;;;;4.93;0.30;;;;;;;7.54;100.00;100357.69;4811526;29;20080;-78
2023/10/14 02:20:57;;;;;;;2.42;0.28;;;;;;;7.47;100.00;100359.19;4810231;29;20076;-79
2023/10/14 02:23:26;;;;;;;3.05;0.25;;;;;;;7.42;100.00;100368.25;4804479;29;20155;-78
2023/10/14 02:25:56;;;;;;;2.45;0.50;;;;;;;7.39;100.00;100368.50;4797793;29;20049;-78
2023/10/14 02:28:39;;;;;;;10.10;0.80;;;;;;;7.39;100.00;100371.16;4799582;29;20048;-79
2023/10/14 02:31:16;;;;;;;2.92;0.30;;;;;;;7.39;100.00;100371.16;4798935;29;20039;-79
2023/10/14 02:33:45;;;;;;;3.92;0.35;;;;;;;7.37;100.00;100380.97;4800484;29;20064;-78
2023/10/14 02:36:15;;;;;;;0.98;0.20;;;;;;;7.41;100.00;100378.91;4805503;29;20031;-79
2023/10/14 02:38:53;;;;;;;2.65;0.25;;;;;;;7.40;100.00;100387.75;4796832;29;20060;-78
2023/10/14 02:41:26;;;;;;;3.58;0.15;;;;;;;7.36;100.00;100384.53;4808801;29;20932;-79
2023/10/14 02:47:03;;;;;;;3.83;0.32;;;;;;;7.31;100.00;100392.81;4792505;29;20050;-78
2023/10/14 02:49:36;;;;;;;2.05;0.30;;;;;;;7.25;100.00;100388.03;4804488;29;20126;-77
2023/10/14 02:52:08;;;;;;;2.58;0.43;;;;;;;7.25;100.00;100388.03;4820801;29;20404;-78
2023/10/14 02:54:34;;;;;;;2.63;0.88;;;;;;;7.22;100.00;100385.66;4810567;29;20042;-78
2023/10/14 02:57:12;;;;;;;0.88;0.28;;;;;;;7.20;100.00;100385.78;4819373;29;20030;-78
2023/10/14 03:02:24;;;;;;;2.83;0.40;;;;;;;7.16;100.00;100388.78;4811032;29;20035;-77
2023/10/14 03:04:56;;;;;;;3.47;0.40;;;;;;;7.18;100.00;100411.34;4819552;29;20044;-78
2023/10/14 03:07:30;;;;;;;4.53;0.60;;;;;;;7.16;100.00;100407.19;4816046;29;20042;-78
2023/10/14 03:10:12;;;;;;;6.38;1.00;;;;;;;7.13;100.00;100407.44;4804658;29;20039;-78
2023/10/14 03:12:42;;;;;;;3.03;0.60;;;;;;;7.14;100.00;100412.56;4799349;29;20048;-77
2023/10/14 03:15:19;;;;;;;7.18;0.52;;;;;;;7.07;100.00;100416.66;4814577;29;20446;-78
2023/10/14 03:18:04;;;;;;;4.15;0.50;;;;;;;7.11;100.00;100425.13;4793474;29;20548;-78
2023/10/14 03:23:19;;;;;;;7.28;0.98;;;;;;;7.09;100.00;100433.13;4815200;29;20038;-80
2023/10/14 03:25:47;;;;;;;3.22;0.73;;;;;;;7.07;100.00;100449.00;4822051;29;20068;-79
2023/10/14 03:28:16;;;;;;;5.97;0.52;;;;;;;7.05;100.00;100448.31;4796528;29;20030;-78
2023/10/14 03:30:44;;;;;;;4.80;0.40;;;;;;;7.11;100.00;100451.41;4809545;29;20031;-79
2023/10/14 03:33:20;;;;;;;4.10;0.50;;;;;;;7.09;100.00;100459.41;4816677;29;20038;-79
2023/10/14 03:36:05;;;;;;;5.03;0.65;;;;;;;7.07;100.00;100458.72;4816577;29;20038;-79
2023/10/14 03:41:18;;;;;;;2.72;0.45;;;;;;;7.03;100.00;100466.00;4812963;29;20099;-78
2023/10/14 03:48:58;;;;;;;2.22;0.30;;;;;;;6.94;100.00;100480.66;4822525;29;20034;-79
2023/10/14 03:51:25;;;;;;;2.10;0.20;;;;;;;6.91;100.00;100477.47;4799700;29;20062;-78
2023/10/14 03:53:55;;;;;;;3.28;0.52;;;;;;;6.88;100.00;100473.28;4799116;29;20039;-77
2023/10/14 03:56:22;;;;;;;5.38;0.60;;;;;;;6.83;100.00;100484.13;4783308;29;20042;-78
2023/10/14 03:58:49;;;;;;;4.63;0.60;;;;;;;6.81;100.00;100487.84;4805185;29;20038;-79
2023/10/14 04:01:22;;;;;;;2.20;0.60;;;;;;;6.77;100.00;100496.94;4794490;29;20051;-79
2023/10/14 04:03:54;;;;;;;3.90;0.85;;;;;;;6.75;100.00;100494.44;4807363;29;20054;-78
2023/10/14 04:06:20;;;;;;;2.47;0.20;;;;;;;6.72;100.00;100501.69;4799102;29;20070;-79
2023/10/14 04:08:50;;;;;;;1.63;0.35;;;;;;;6.69;100.00;100494.88;4804648;29;20034;-79
2023/10/14 04:11:35;;;;;;;4.10;0.55;;;;;;;6.68;100.00;100507.19;4810096;29;20031;-78
2023/10/14 04:14:02;;;;;;;5.80;0.55;;;;;;;6.65;100.00;100506.56;4808379;29;20042;-78
2023/10/14 04:16:49;;;;;;;0.65;0.25;;;;;;;6.66;100.00;100514.34;4811388;29;20042;-78
2023/10/14 04:19:27;;;;;;;4.05;0.88;;;;;;;6.68;100.00;100509.81;4807117;29;20575;-78
2023/10/14 04:21:58;;;;;;;2.72;0.30;;;;;;;6.66;100.00;100516.97;4783563;29;20492;-77
2023/10/14 04:24:45;;;;;;;3.83;0.22;;;;;;;6.68;100.00;100519.47;4802872;29;20045;-80
2023/10/14 04:27:21;;;;;;;3.38;0.30;;;;;;;6.65;100.00;100522.34;4800181;29;20167;-80
2023/10/14 04:30:21;;;;;;;9.68;0.50;;;;;;;6.63;100.00;100516.34;4788235;29;20039;-79
2023/10/14 04:35:25;;;;;;;1.42;0.30;;;;;;;6.55;100.00;100535.31;4819981;29;20046;-78
2023/10/14 04:37:55;;;;;;;2.72;0.38;;;;;;;6.61;100.00;100534.03;4809409;29;20065;-78
2023/10/14 04:45:45;;;;;;;2.85;0.20;;;;;;;6.57;100.00;100544.78;4802008;29;20043;-78
2023/10/14 04:48:12;;;;;;;4.85;0.40;;;;;;;6.59;100.00;100549.91;4807827;29;20035;-78
2023/10/14 04:50:41;;;;;;;5.03;0.52;;;;;;;6.54;100.00;100559.91;4800456;29;20054;-78
2023/10/14 04:53:09;;;;;;;2.97;0.28;;;;;;;6.51;100.00;100555.75;4798606;29;20102;-77
2023/10/14 04:55:43;;;;;;;2.25;0.22;;;;;;;6.53;100.00;100559.06;4799717;29;20046;-79
2023/10/14 04:58:23;;;;;;;2.38;0.20;;;;;;;6.52;100.00;100567.91;4802812;29;20047;-79
2023/10/14 05:00:49;;;;;;;4.28;0.40;;;;;;;6.51;100.00;100560.16;4812678;29;20064;-79
2023/10/14 05:03:20;;;;;;;2.65;0.38;;;;;;;6.57;100.00;100567.56;4805928;29;20051;-79
2023/10/14 05:05:55;;;;;;;7.50;0.50;;;;;;;6.61;100.00;100573.44;4801438;29;20245;-79
2023/10/14 05:08:24;;;;;;;3.50;0.70;;;;;;;6.66;100.00;100569.50;4814831;29;20045;-79
2023/10/14 05:10:50;;;;;;;1.40;0.17;;;;;;;6.71;100.00;100579.66;4798858;29;20042;-79
2023/10/14 05:13:19;;;;;;;2.17;0.30;;;;;;;6.71;100.00;100577.03;4793931;29;20050;-78
2023/10/14 05:15:53;;;;;;;3.22;0.30;;;;;;;6.65;100.00;100575.72;4788215;29;20128;-79
2023/10/14 05:18:28;;;;;;;2.65;0.30;;;;;;;6.61;100.00;100590.00;4813699;29;20074;-79
2023/10/14 05:21:12;;;;;;;1.75;0.10;;;;;;;6.57;100.00;100586.78;4810294;29;20039;-79
2023/10/14 05:23:41;;;;;;;4.72;0.20;;;;;;;6.54;100.00;100587.03;4798393;29;20054;-79
2023/10/14 05:26:07;;;;;;;2.33;0.30;;;;;;;6.55;100.00;100599.19;4800241;29;20046;-78
2023/10/14 05:28:36;;;;;;;1.25;0.30;;;;;;;6.53;100.00;100603.72;4814561;29;20051;-79
2023/10/14 05:31:08;;;;;;;4.53;0.35;;;;;;;6.60;100.00;100603.25;4815305;29;20070;-79
2023/10/14 05:33:37;;;;;;;1.35;0.20;;;;;;;6.59;100.00;100610.31;4799011;29;20537;-79
2023/10/14 05:36:05;;;;;;;1.17;0.17;;;;;;;6.52;100.00;100612.56;4812007;29;20034;-79
2023/10/14 05:38:31;;;;;;;5.38;0.55;;;;;;;6.53;100.00;100616.84;4801574;29;20042;-78
2023/10/14 05:41:00;;;;;;;4.82;0.40;;;;;;;6.55;100.00;100622.84;4799069;29;20053;-78
2023/10/14 05:43:26;;;;;;;1.67;0.40;;;;;;;6.52;100.00;100628.31;4799057;29;20050;-79
2023/10/14 05:45:53;;;;;;;0.80;0.20;;;;;;;6.50;100.00;100627.59;4815626;29;20556;-79
2023/10/14 05:48:27;;;;;;;2.03;0.20;;;;;;;6.50;100.00;100632.84;4803105;29;20121;-78
2023/10/14 05:50:56;;;;;;;0.47;0.10;;;;;;;6.54;100.00;100634.31;4798169;29;20528;-78
2023/10/14 05:53:29;;;;;;;2.33;0.32;;;;;;;6.53;100.00;100637.03;4782634;29;20567;-79
2023/10/14 05:56:09;;;;;;;3.20;0.20;;;;;;;6.49;100.00;100646.06;4793462;29;20034;-78
2023/10/14 05:58:37;;;;;;;0.45;0.15;;;;;;;6.48;100.00;100645.25;4803950;29;20102;-79
2023/10/14 06:01:10;;;;;;;2.97;0.20;;;;;;;6.48;100.00;100654.91;4820336;29;20118;-79
2023/10/14 06:03:43;;;;;;;4.20;0.25;;;;;;;6.45;100.00;100653.34;4788509;29;20045;-79
2023/10/14 06:06:16;;;;;;;1.65;0.17;;;;;;;6.39;100.00;100653.78;4789821;29;20042;-79
2023/10/14 06:08:46;;;;;;;1.58;0.40;;;;;;;6.37;100.00;100658.31;4816601;29;20068;-80
2023/10/14 06:11:12;;;;;;;1.83;0.20;;;;;;;6.33;100.00;100668.19;4801794;29;20034;-79
2023/10/14 06:13:38;;;;;;;1.40;0.40;;;;;;;6.32;100.00;100672.59;4813928;29;20117;-79
2023/10/14 06:16:09;;;;;;;2.35;0.40;;;;;;;6.33;100.00;100679.56;4809133;29;20049;-79
2023/10/14 06:18:43;;;;;;;2.50;0.30;;;;;;;6.35;100.00;100675.97;4819665;29;20038;-78
2023/10/14 06:21:10;;;;;;;7.93;0.50;;;;;;;6.27;100.00;100673.91;4815701;29;20464;-79
2023/10/14 06:23:39;;;;;;;1.95;0.32;;;;;;;6.26;100.00;100678.31;4802972;29;20039;-79
2023/10/14 06:26:06;;;;;;;3.72;0.38;;;;;;;6.26;100.00;100693.22;4812922;29;20639;-80
2023/10/14 06:28:32;;;;;;;2.22;0.20;;;;;;;6.22;100.00;100691.75;4800703;29;20106;-79
2023/10/14 06:31:02;;;;;;;1.08;0.28;;;;;;;6.18;100.00;100697.22;4820815;29;20042;-79
2023/10/14 06:33:29;;;;;;;2.97;0.35;;;;;;;6.14;100.00;100689.69;4805347;29;20073;-78
2023/10/14 06:36:00;;;;;;;1.38;0.17;;;;;;;6.08;100.00;100697.03;4793859;29;20521;-78
2023/10/14 06:38:26;;;;;;;1.75;0.30;;;;;;;5.99;100.00;100692.41;4803736;29;20042;-79
2023/10/14 06:40:54;;;;;;;1.75;0.20;;;;;;;5.91;100.00;100697.38;4790343;29;20087;-79
2023/10/14 06:43:26;;;;;;;1.45;0.25;;;;;;;5.86;100.00;100699.47;4811995;29;20042;-78
2023/10/14 06:45:52;;;;;;;3.20;0.20;;;;;;;5.75;100.00;100706.28;4796626;29;20046;-78
2023/10/14 06:48:18;;;;;;;5.75;0.50;;;;;;;5.73;100.00;100707.34;4818779;29;20523;-78
2023/10/14 06:50:47;;;;;;;5.88;0.65;;;;;;;5.68;100.00;100716.38;4790750;29;20054;-79
2023/10/14 06:53:18;;;;;;;5.65;0.25;;;;;;;5.64;100.00;100714.91;4804847;29;20039;-78
2023/10/14 06:55:45;;;;;;;4.63;0.20;;;;;;;5.64;100.00;100724.56;4803980;29;20488;-79
2023/10/14 06:58:18;;;;;;;3.42;0.40;;;;;;;5.65;100.00;100729.72;4805083;29;20037;-79
2023/10/14 07:00:45;;;;;;;1.05;0.22;;;;;;;5.62;100.00;100736.94;4798906;29;20065;-78
2023/10/14 07:03:14;;;;;;;1.92;0.40;;;;;;;5.62;100.00;100747.44;4767180;29;20042;-79
2023/10/14 07:05:56;;;;;;;2.17;0.35;;;;;;;5.64;100.00;100746.38;4797732;29;20131;-79
2023/10/14 07:08:27;;;;;;;2.38;0.55;;;;;;;5.66;100.00;100759.38;4813665;29;20041;-79
2023/10/14 07:10:55;;;;;;;2.00;0.40;;;;;;;5.65;100.00;100758.56;4795523;29;20038;-78
2023/10/14 07:13:22;;;;;;;2.63;0.43;;;;;;;5.68;100.00;100763.59;4800823;29;20050;-79
2023/10/14 07:15:51;;;;;;;3.55;0.90;;;;;;;5.76;100.00;100767.47;4789917;29;20492;-79
2023/10/14 07:18:23;;;;;;;2.20;0.40;;;;;;;5.83;100.00;100772.19;4801063;29;20045;-79
2023/10/14 07:21:03;;;;;;;4.45;0.43;;;;;;;5.96;100.00;100774.81;4817075;29;20060;-79
2023/10/14 07:23:33;;;;;;;3.17;0.80;;;;;;;5.99;100.00;100776.38;4801528;29;20043;-79
2023/10/14 07:26:07;;;;;;;4.45;0.40;;;;;;;6.06;100.00;100776.81;4809069;29;20062;-79
2023/10/14 07:28:35;;;;;;;1.65;0.30;;;;;;;6.02;100.00;100788.47;4819309;29;20067;-79
2023/10/14 07:31:00;;;;;;;0.95;0.47;;;;;;;6.04;100.00;100795.31;4801993;29;20031;-79
2023/10/14 07:33:26;;;;;;;2.45;0.28;;;;;;;6.05;100.00;100798.78;4815804;29;20126;-79
2023/10/14 07:35:52;;;;;;;3.22;0.50;;;;;;;6.06;100.00;100803.94;4815015;29;20041;-78
2023/10/14 07:38:17;;;;;;;0.38;0.20;;;;;;;6.10;100.00;100807.16;4813998;29;20381;-81
2023/10/14 07:40:43;;;;;;;8.68;0.47;;;;;;;6.14;100.00;100811.25;4802769;29;20450;-79
2023/10/14 07:43:11;;;;;;;1.23;0.20;;;;;;;6.18;100.00;100814.53;4813334;29;20042;-80
2023/10/14 07:45:46;;;;;;;1.52;0.30;;;;;;;6.26;100.00;100817.44;4799151;29;20042;-79
2023/10/14 07:48:13;;;;;;;2.40;0.35;;;;;;;6.29;100.00;100832.97;4817025;29;20030;-80
2023/10/14 07:50:46;;;;;;;1.85;0.55;;;;;;;6.39;100.00;100827.06;4802693;29;20070;-80
2023/10/14 07:53:15;;;;;;;2.58;0.25;;;;;;;6.41;100.00;100843.56;4800125;29;20054;-79
2023/10/14 07:55:41;;;;;;;3.78;0.50;;;;;;;6.46;100.00;100846.72;4786529;29;20053;-79
2023/10/14 07:58:10;;;;;;;1.30;0.40;;;;;;;6.49;100.00;100848.28;4812922;29;20035;-79
2023/10/14 08:00:50;;;;;;;2.72;0.45;;;;;;;6.54;100.00;100854.06;4814682;29;20059;-79
2023/10/14 08:03:18;;;;;;;2.45;0.40;;;;;;;6.57;100.00;100861.72;4789520;29;20507;-79
2023/10/14 08:05:53;;;;;;;3.55;0.80;;;;;;;6.63;100.00;100866.53;4803905;29;20605;-79
2023/10/14 08:08:22;;;;;;;4.68;0.35;;;;;;;6.64;100.00;100870.03;4787834;29;20080;-79
2023/10/14 08:10:51;;;;;;;3.03;0.40;;;;;;;6.66;100.00;100874.22;4816857;29;20052;-79
2023/10/14 08:13:21;;;;;;;3.65;0.85;;;;;;;6.69;100.00;100875.75;4790561;29;20035;-78
2023/10/14 08:15:52;;;;;;;11.00;0.77;;;;;;;6.71;100.00;100879.13;4808646;29;20037;-77
2023/10/14 08:18:24;;;;;;;2.40;0.45;;;;;;;6.75;100.00;100888.50;4798006;29;20055;-78
2023/10/14 08:20:55;;;;;;;5.68;0.68;;;;;;;6.80;100.00;100882.91;4812136;29;20060;-79
2023/10/14 08:23:25;;;;;;;8.65;0.45;;;;;;;6.85;100.00;100893.91;4809100;29;20042;-79
2023/10/14 08:25:54;;;;;;;5.15;0.65;;;;;;;6.86;100.00;100894.75;4814038;29;20050;-79
2023/10/14 08:28:27;;;;;;;4.57;0.30;;;;;;;6.92;100.00;100894.31;4798857;29;20094;-79
2023/10/14 08:30:55;;;;;;;2.67;0.30;;;;;;;6.89;100.00;100897.19;4808738;29;20039;-78
2023/10/14 08:33:23;;;;;;;2.05;0.38;;;;;;;6.99;100.00;100903.44;4810013;29;20484;-79
2023/10/14 08:35:50;;;;;;;1.42;0.32;;;;;;;7.07;100.00;100897.66;4798464;29;20411;-79
2023/10/14 08:38:21;;;;;;;6.28;0.63;;;;;;;7.15;100.00;100902.38;4801571;29;20043;-79
2023/10/14 08:40:51;;;;;;;2.58;0.63;;;;;;;7.23;100.00;100909.69;4803857;29;20035;-78
2023/10/14 08:43:26;;;;;;;1.50;0.60;;;;;;;7.30;100.00;100922.28;4803917;29;20476;-79
2023/10/14 08:45:55;;;;;;;5.45;1.13;;;;;;;7.31;100.00;100918.69;4801978;29;20077;-78
2023/10/14 08:48:26;;;;;;;3.33;0.40;;;;;;;7.41;100.00;100923.28;4798035;29;20072;-78
2023/10/14 08:50:56;;;;;;;2.40;0.40;;;;;;;7.45;100.00;100925.59;4816031;29;20058;-80
2023/10/14 08:53:23;;;;;;;3.53;0.70;;;;;;;7.52;100.00;100931.25;4815153;29;20068;-79
2023/10/14 08:55:52;;;;;;;3.83;0.40;;;;;;;7.62;100.00;100933.19;4794630;29;20043;-78
2023/10/14 08:58:22;;;;;;;1.92;0.35;;;;;;;7.74;100.00;100936.72;4817248;29;20031;-79
2023/10/14 09:00:50;;;;;;;1.73;0.35;;;;;;;7.80;100.00;100937.09;4802251;29;20042;-78
2023/10/14 09:03:16;;;;;;;5.72;0.65;;;;;;;7.86;100.00;100946.34;4819586;29;20066;-79
2023/10/14 09:06:38;;;;;;;;;;;;;;;;;;;;;
2023/10/14 09:09:18;;;;;;;3.97;0.60;;;;;;;8.04;100.00;100944.09;4813642;29;20046;-79
2023/10/14 09:11:43;;;;;;;2.90;0.40;;;;;;;8.14;100.00;100943.41;4812565;29;20042;-79
2023/10/14 09:14:11;;;;;;;6.25;0.68;;;;;;;8.19;100.00;100944.75;4808643;29;20043;-80
2023/10/14 09:16:36;;;;;;;1.60;0.38;;;;;;;8.24;100.00;100956.72;4799228;29;20057;-80
2023/10/14 09:19:05;;;;;;;17.00;8.25;;;;;;;8.28;100.00;100950.28;4800406;29;20377;-81
2023/10/14 09:21:32;;;;;;;6.47;0.70;;;;;;;8.35;100.00;100954.13;4802261;29;20073;-78
2023/10/14 09:24:07;;;;;;;7.53;1.05;;;;;;;8.38;100.00;100951.25;4784384;29;20125;-79
2023/10/14 09:26:38;;;;;;;8.02;0.80;;;;;;;8.41;100.00;100956.28;4798623;29;20043;-79
2023/10/14 09:29:04;;;;;;;4.65;0.85;;;;;;;8.43;100.00;100958.81;4813347;29;20030;-80
2023/10/14 09:31:30;;;;;;;6.07;0.85;;;;;;;8.47;100.00;100956.78;4802825;29;20050;-82
2023/10/14 09:33:55;;;;;;;5.82;1.83;;;;;;;8.55;100.00;100959.72;4804312;29;20038;-78
2023/10/14 09:36:22;;;;;;;2.45;0.73;;;;;;;8.60;100.00;100962.81;4788797;29;20053;-80
2023/10/14 09:38:49;;;;;;;3.03;0.55;;;;;;;8.64;100.00;100979.22;4769649;29;20094;-80
2023/10/14 09:41:15;;;;;;;3.90;0.38;;;;;;;8.72;100.00;100979.47;4808102;29;20042;-79
2023/10/14 09:43:47;;;;;;;4.45;1.20;;;;;;;8.76;100.00;100975.63;4792391;29;20376;-79
2023/10/14 09:46:19;;;;;;;7.35;1.17;;;;;;;8.78;100.00;100970.25;4808078;29;20037;-79
2023/10/14 09:48:46;;;;;;;5.40;0.52;;;;;;;8.78;100.00;100979.00;4799678;29;20050;-77
2023/10/14 09:51:15;;;;;;;12.73;1.02;;;;;;;8.85;100.00;100983.78;4810105;29;20412;-79
2023/10/14 09:53:45;;;;;;;8.45;0.82;;;;;;;8.89;100.00;100985.22;4810346;29;20095;-81
2023/10/14 09:56:12;;;;;;;2.63;0.63;;;;;;;8.91;100.00;100988.59;4821144;29;20038;-79
2023/10/14 09:58:42;;;;;;;3.38;0.65;;;;;;;8.98;100.00;100986.31;4791126;29;20041;-80
2023/10/14 10:01:14;;;;;;;6.60;0.65;;;;;;;8.98;100.00;100986.31;4816121;29;20063;-80
2023/10/14 10:03:52;;;;;;;5.50;1.00;;;;;;;9.08;100.00;100992.53;4798539;29;20095;-81
2023/10/14 10:06:23;;;;;;;5.78;1.45;;;;;;;9.07;100.00;100998.78;4805422;29;20496;-81
2023/10/14 10:09:01;;;;;;;8.20;0.63;;;;;;;9.25;100.00;101000.91;4786120;29;20053;-81
2023/10/14 10:11:29;;;;;;;4.78;2.30;;;;;;;9.32;100.00;101007.38;4802535;29;20046;-79
2023/10/14 10:13:59;;;;;;;7.65;0.63;;;;;;;9.36;100.00;101007.97;4816325;29;20046;-82
2023/10/14 10:16:31;;;;;;;4.05;0.73;;;;;;;9.37;100.00;101017.56;4810931;29;20046;-78
2023/10/14 10:18:59;;;;;;;3.30;0.65;;;;;;;9.40;100.00;101025.22;4810498;29;20034;-80
2023/10/14 10:21:32;;;;;;;3.20;0.68;;;;;;;9.47;100.00;101031.72;4819490;29;20091;-81
2023/10/14 10:24:18;;;;;;;2.83;0.50;;;;;;;9.52;100.00;101036.63;4808565;29;20046;-80
2023/10/14 10:26:58;;;;;;;6.80;1.13;;;;;;;9.46;100.00;101030.00;4801974;29;20045;-79
2023/10/14 10:29:24;;;;;;;5.45;0.80;;;;;;;9.53;100.00;101033.00;4804591;29;20042;-78
2023/10/14 10:32:16;;;;;;;8.20;1.05;;;;;;;9.60;100.00;101034.22;4804496;29;20026;-79
2023/10/14 10:35:07;;;;;;;6.07;0.43;;;;;;;9.74;100.00;101033.09;4815321;29;20433;-79
2023/10/14 10:37:34;;;;;;;4.50;0.68;;;;;;;9.83;100.00;101043.84;4811789;29;20042;-80
2023/10/14 10:40:05;;;;;;;6.93;1.17;;;;;;;9.84;100.00;101046.41;4816591;29;20046;-79
2023/10/14 10:42:34;;;;;;;7.55;1.05;;;;;;;9.81;100.00;101036.03;4801806;29;20043;-79
2023/10/14 10:45:00;;;;;;;9.23;1.00;;;;;;;9.74;100.00;101046.28;4808408;29;20122;-81
2023/10/14 10:47:29;;;;;;;11.23;1.23;;;;;;;9.75;100.00;101042.69;4803937;29;20042;-81
2023/10/14 10:50:02;;;;;;;6.50;0.95;;;;;;;9.75;100.00;101047.09;4803806;29;20542;-79
2023/10/14 10:52:36;;;;;;;6.05;1.30;;;;;;;9.80;100.00;101053.72;4803084;29;20098;-80
2023/10/14 10:55:03;;;;;;;5.47;1.00;;;;;;;9.84;100.00;101049.03;4814050;29;20144;-80
2023/10/14 10:57:29;;;;;;;5.15;0.90;;;;;;;9.72;100.00;101050.84;4817186;29;20493;-80
2023/10/14 10:59:55;;;;;;;9.88;0.85;;;;;;;9.89;100.00;101056.56;4816667;29;20043;-78
2023/10/14 11:02:21;;;;;;;8.93;1.02;;;;;;;9.99;100.00;101052.22;4801560;29;20507;-78
2023/10/14 11:04:48;;;;;;;5.40;1.05;;;;;;;10.08;100.00;101053.25;4803179;29;20026;-80
2023/10/14 11:07:14;;;;;;;23.13;15.70;;;;;;;10.12;100.00;101057.34;4817538;29;20190;-79
2023/10/14 11:09:40;;;;;;;5.93;1.10;;;;;;;10.22;100.00;101065.34;4818965;29;20875;-79
2023/10/14 11:12:09;;;;;;;9.10;1.75;;;;;;;10.37;100.00;101055.28;4799820;29;20038;-79
2023/10/14 11:14:36;;;;;;;9.98;0.90;;;;;;;10.34;100.00;101055.53;4802255;29;20047;-82
2023/10/14 11:17:01;;;;;;;12.00;1.25;;;;;;;10.38;100.00;101058.78;4787833;29;20055;-78
2023/10/14 11:19:34;;;;;;;9.38;1.08;;;;;;;10.48;100.00;101065.00;4812738;29;20043;-79
2023/10/14 11:22:03;;;;;;;6.28;1.25;;;;;;;10.51;100.00;101067.38;4800415;29;20488;-78
2023/10/14 11:24:32;;;;;;;5.95;1.20;;;;;;;10.67;100.00;101068.75;4800902;29;20416;-80
2023/10/14 11:27:02;;;;;;;7.82;1.10;;;;;;;10.78;100.00;101075.78;4800607;29;20114;-89
2023/10/14 11:29:33;;;;;;;4.55;0.90;;;;;;;10.67;100.00;101084.63;4803365;29;20039;-88
2023/10/14 11:31:59;;;;;;;5.28;0.85;;;;;;;10.74;100.00;101082.28;4804455;29;20475;-88
2023/10/14 11:34:35;;;;;;;2.20;0.57;;;;;;;10.80;100.00;101079.09;4792918;29;20031;-87
2023/10/14 11:37:01;;;;;;;6.20;1.00;;;;;;;10.72;100.00;101081.59;4783386;29;20039;-87
2023/10/14 11:39:28;;;;;;;4.45;1.08;;;;;;;10.79;100.00;101088.03;4790440;29;20094;-81
2023/10/14 11:41:53;;;;;;;6.95;1.65;;;;;;;10.51;100.00;101083.25;4820864;29;20042;-85
2023/10/14 11:44:20;;;;;;;6.25;0.88;;;;;;;10.39;100.00;101089.50;4807018;29;20454;-84
2023/10/14 11:46:47;;;;;;;11.88;2.78;;;;;;;10.32;100.00;101089.19;4791830;29;20042;-86
2023/10/14 11:49:13;;;;;;;6.28;1.10;;;;;;;10.28;100.00;101090.41;4803159;29;20495;-87
2023/10/14 11:51:45;;;;;;;6.05;1.20;;;;;;;10.22;100.00;101088.28;4802354;29;20469;-91
2023/10/14 11:54:15;;;;;;;8.68;1.67;;;;;;;10.14;100.00;101087.09;4820573;29;20034;-90
2023/10/14 11:56:44;;;;;;;5.57;1.02;;;;;;;10.27;100.00;101104.59;4807042;29;20134;-88
2023/10/14 11:59:12;;;;;;;11.27;1.20;;;;;;;10.28;100.00;101095.69;4796645;29;20603;-88
2023/10/14 12:01:38;;;;;;;13.45;1.52;;;;;;;10.28;100.00;101098.34;4777474;29;20093;-86
2023/10/14 12:04:05;;;;;;;6.60;1.33;;;;;;;10.23;100.00;101100.50;4790973;29;20790;-84
2023/10/14 12:06:34;;;;;;;9.88;2.28;;;;;;;10.17;100.00;101101.84;4803906;29;20074;-86
2023/10/14 12:09:11;;;;;;;9.45;0.98;;;;;;;10.22;100.00;101109.41;4804142;29;20057;-86
2023/10/14 12:11:43;;;;;;;7.03;0.93;;;;;;;10.35;100.00;101109.25;4794786;29;20484;-87
2023/10/14 12:14:11;;;;;;;12.13;1.98;;;;;;;10.65;100.00;101094.47;4794455;29;20045;-86
2023/10/14 12:16:42;;;;;;;11.02;1.48;;;;;;;10.86;100.00;101096.28;4808344;29;20568;-87
2023/10/14 12:19:11;;;;;;;6.47;1.30;;;;;;;10.78;100.00;101099.56;4790811;29;20347;-88
2023/10/14 12:21:45;;;;;;;9.23;1.73;;;;;;;10.64;100.00;101098.06;4794449;29;20045;-88